Time;durP1;ratioP1;P1;durP2;ratioP2;P2;SDS_P1;SDS_P2;PMS_P1;PMS_P2;Temp;Humidity;BMP_temperature;BMP_pressure;BME280_temperature;BME280_humidity;BME280_pressure;Samples;Min_cycle;Max_cycle;Signal;HPM_P1;HPM_P2
2024/01/13 00:01:49;;;;;;;16.10;8.80;;;;;;;2.23;66.93;100725.44;6196587;22;96672;-82
2024/01/13 00:04:15;;;;;;;13.27;8.10;;;;;;;2.24;66.97;100751.34;6196078;22;97569;-82
2024/01/13 00:06:41;;;;;;;13.43;8.40;;;;;;;2.20;67.14;100747.00;6170646;22;101353;-83
2024/01/13 00:09:06;;;;;;;10.70;7.70;;;;;;;2.06;67.24;100722.72;6196047;22;96489;-83
2024/01/13 00:11:32;;;;;;;14.97;8.67;;;;;;;2.30;67.05;100740.16;6196390;22;96481;-82
2024/01/13 00:13:58;;;;;;;9.03;7.03;;;;;;;2.14;66.80;100707.25;6196098;22;97326;-85
2024/01/13 00:16:24;;;;;;;12.70;8.37;;;;;;;2.09;67.16;100707.19;6196030;22;97744;-82
2024/01/13 00:18:49;;;;;;;12.70;7.83;;;;;;;2.37;67.25;100741.06;6196269;22;96577;-83
2024/01/13 00:21:15;;;;;;;12.17;8.40;;;;;;;2.20;66.91;100713.31;6171091;22;96894;-82
2024/01/13 00:23:40;;;;;;;12.97;8.27;;;;;;;2.24;67.06;100712.50;6195906;22;97848;-82
2024/01/13 00:26:06;;;;;;;14.20;8.67;;;;;;;2.29;67.05;100712.50;6196254;22;97815;-83
2024/01/13 00:28:32;;;;;;;11.70;7.87;;;;;;;2.19;67.25;100713.31;6196454;22;96547;-83
2024/01/13 00:30:57;;;;;;;12.37;7.63;;;;;;;2.38;67.13;100743.66;6196529;22;96737;-83
2024/01/13 00:33:23;;;;;;;13.80;8.97;;;;;;;2.33;67.09;100737.59;6195602;22;97536;-82
2024/01/13 00:35:48;;;;;;;12.30;8.03;;;;;;;2.12;67.32;100689.09;6195897;22;97471;-82
2024/01/13 00:38:14;;;;;;;12.70;7.77;;;;;;;2.41;66.72;100730.72;6222027;22;96463;-83
2024/01/13 00:40:39;;;;;;;12.23;8.03;;;;;;;2.25;67.50;100713.34;6170551;22;96778;-82
2024/01/13 00:43:05;;;;;;;12.83;8.27;;;;;;;2.18;67.63;100696.94;6195765;22;97734;-82
2024/01/13 00:45:30;;;;;;;12.87;8.83;;;;;;;2.14;67.36;100692.56;6195545;22;100818;-82
2024/01/13 00:47:56;;;;;;;12.30;7.80;;;;;;;2.21;66.78;100678.81;6221826;22;96435;-85
2024/01/13 00:50:22;;;;;;;12.73;7.87;;;;;;;2.17;66.81;100687.41;6222267;22;96686;-83
2024/01/13 00:52:47;;;;;;;13.03;8.20;;;;;;;2.43;67.22;100713.47;6195306;22;101563;-83
2024/01/13 00:55:14;;;;;;;12.77;8.67;;;;;;;2.33;66.63;100682.28;6170187;22;100873;-82
2024/01/13 00:57:39;;;;;;;14.57;7.53;;;;;;;2.43;66.92;100697.91;6248917;22;96421;-83
2024/01/13 01:00:06;;;;;;;12.93;8.07;;;;;;;2.60;66.58;100723.06;6221752;22;96729;-82
2024/01/13 01:02:31;;;;;;;13.33;8.30;;;;;;;2.31;67.25;100687.47;6170175;22;101800;-83
2024/01/13 01:04:57;;;;;;;11.10;7.83;;;;;;;2.40;67.35;100704.81;6195443;22;101966;-83
2024/01/13 01:07:22;;;;;;;12.20;7.47;;;;;;;2.39;67.12;100701.34;6195701;22;96553;-83
2024/01/13 01:09:48;;;;;;;13.57;7.80;;;;;;;2.44;67.34;100709.13;6195953;22;96532;-83
2024/01/13 01:12:13;;;;;;;12.30;7.50;;;;;;;2.26;67.30;100673.63;6195765;22;97984;-82
2024/01/13 01:14:39;;;;;;;13.23;6.93;;;;;;;2.36;67.52;100682.34;6195865;22;97556;-82
2024/01/13 01:17:04;;;;;;;12.77;7.40;;;;;;;2.35;67.33;100670.22;6221665;22;96509;-82
2024/01/13 01:19:30;;;;;;;12.97;8.20;;;;;;;2.54;67.41;100703.16;6221294;22;96719;-82
2024/01/13 01:21:55;;;;;;;12.77;8.10;;;;;;;2.39;67.44;100672.84;6220800;22;97961;-82
2024/01/13 01:24:20;;;;;;;15.63;8.63;;;;;;;2.63;67.31;100690.22;6195371;22;101106;-82
2024/01/13 01:26:46;;;;;;;10.83;7.27;;;;;;;2.55;67.45;100680.69;6221812;22;96435;-86
2024/01/13 01:29:12;;;;;;;12.37;8.77;;;;;;;2.57;67.37;100676.38;6195896;22;96813;-83
2024/01/13 01:31:37;;;;;;;13.73;8.90;;;;;;;2.63;67.59;100687.63;6220944;22;98087;-82
2024/01/13 01:34:03;;;;;;;14.03;7.77;;;;;;;2.40;67.81;100661.63;6195612;22;98068;-83
2024/01/13 01:36:28;;;;;;;11.70;6.97;;;;;;;2.58;67.88;100689.34;6221836;22;96991;-83
2024/01/13 01:38:54;;;;;;;13.53;8.30;;;;;;;2.65;67.00;100682.47;6221987;22;96486;-83
2024/01/13 01:41:20;;;;;;;12.70;7.83;;;;;;;2.67;67.30;100655.66;6220605;22;101328;-83
2024/01/13 01:43:46;;;;;;;13.83;8.50;;;;;;;2.76;67.18;100675.56;6195322;22;101269;-82
2024/01/13 01:46:17;;;;;;;12.00;7.70;;;;;;;2.82;66.99;100674.72;6195541;22;96482;-82
2024/01/13 01:48:43;;;;;;;12.47;7.67;;;;;;;2.68;67.24;100662.59;6171788;22;96686;-82
2024/01/13 01:51:10;;;;;;;12.10;7.90;;;;;;;2.26;67.42;100616.63;6169805;22;101230;-82
2024/01/13 01:53:36;;;;;;;13.73;8.00;;;;;;;2.70;67.19;100663.47;6195559;22;97458;-82
2024/01/13 01:56:04;;;;;;;13.47;8.63;;;;;;;2.64;67.07;100655.66;6170641;22;96498;-83
2024/01/13 01:58:30;;;;;;;15.23;9.33;;;;;;;2.42;67.50;100639.19;6170548;22;96808;-82
2024/01/13 02:00:56;;;;;;;16.77;8.23;;;;;;;2.36;67.67;100627.94;6195050;22;100320;-82
2024/01/13 02:03:22;;;;;;;14.70;7.80;;;;;;;2.45;67.60;100623.66;6221164;22;98362;-87
2024/01/13 02:05:47;;;;;;;15.00;7.87;;;;;;;2.47;67.39;100624.53;6170584;22;96461;-82
2024/01/13 02:08:13;;;;;;;13.70;8.70;;;;;;;2.62;66.78;100630.63;6221651;22;96714;-83
2024/01/13 02:10:38;;;;;;;14.33;7.50;;;;;;;2.52;66.82;100608.97;6220174;22;97804;-82
2024/01/13 02:13:04;;;;;;;12.83;7.80;;;;;;;2.66;66.38;100624.56;6220743;22;97528;-82
2024/01/13 02:15:29;;;;;;;11.97;7.27;;;;;;;2.60;67.00;100621.97;6195909;22;96577;-82
2024/01/13 02:17:55;;;;;;;12.10;8.10;;;;;;;2.39;66.84;100576.13;6195655;22;96848;-83
2024/01/13 02:20:20;;;;;;;14.63;7.73;;;;;;;2.51;67.09;100607.25;6170123;22;101160;-82
2024/01/13 02:22:46;;;;;;;13.70;8.00;;;;;;;2.67;66.84;100609.00;6195125;22;101399;-82
2024/01/13 02:25:11;;;;;;;16.93;7.83;;;;;;;2.56;67.03;100599.47;6195755;22;96466;-87
2024/01/13 02:27:37;;;;;;;12.57;8.03;;;;;;;2.38;67.43;100585.59;6196027;22;96872;-85
2024/01/13 02:30:03;;;;;;;13.40;7.50;;;;;;;2.45;67.42;100602.91;6195275;22;97544;-82
2024/01/13 02:32:28;;;;;;;15.13;8.27;;;;;;;2.43;67.53;100608.94;6220679;22;98321;-83
2024/01/13 02:34:54;;;;;;;13.77;7.77;;;;;;;2.35;67.52;100590.75;6195257;22;96708;-82
2024/01/13 02:37:19;;;;;;;14.70;7.67;;;;;;;2.41;67.64;100593.38;6195605;22;96826;-82
2024/01/13 02:39:46;;;;;;;13.47;7.83;;;;;;;2.31;67.55;100581.25;6220410;22;101134;-81
2024/01/13 02:42:11;;;;;;;14.90;8.37;;;;;;;2.36;67.60;100582.16;6195000;22;101438;-82
2024/01/13 02:44:37;;;;;;;12.83;7.93;;;;;;;2.51;67.06;100564.94;6221322;22;96453;-83
2024/01/13 02:47:03;;;;;;;12.73;7.90;;;;;;;2.81;66.77;100606.47;6195360;22;96767;-83
2024/01/13 02:49:28;;;;;;;13.43;8.13;;;;;;;2.74;66.54;100601.28;6194836;22;100430;-82
2024/01/13 02:51:54;;;;;;;13.93;8.50;;;;;;;2.81;67.05;100603.00;6220225;22;97465;-83
2024/01/13 02:54:19;;;;;;;14.53;7.47;;;;;;;2.70;67.06;100583.09;6170400;22;96591;-83
2024/01/13 02:56:44;;;;;;;14.07;7.40;;;;;;;2.57;67.09;100560.63;6220986;22;96554;-82
2024/01/13 02:59:10;;;;;;;12.43;6.60;;;;;;;2.74;67.37;100596.09;6194718;22;97957;-83
2024/01/13 03:01:35;;;;;;;11.87;6.70;;;;;;;2.56;67.17;100548.53;6194776;22;97812;-83
2024/01/13 03:04:01;;;;;;;12.50;7.57;;;;;;;2.76;67.11;100583.97;6220925;22;96503;-82
2024/01/13 03:06:26;;;;;;;17.63;7.73;;;;;;;2.78;67.56;100596.09;6195556;22;96875;-82
2024/01/13 03:08:53;;;;;;;12.10;7.13;;;;;;;2.68;67.25;100594.34;6220336;22;97787;-84
2024/01/13 03:11:19;;;;;;;16.00;7.10;;;;;;;2.52;68.32;100583.06;6194969;22;97870;-83
2024/01/13 03:13:44;;;;;;;12.03;7.13;;;;;;;2.56;67.36;100586.50;6195580;22;96602;-83
2024/01/13 03:16:10;;;;;;;20.37;7.57;;;;;;;2.57;68.12;100598.63;6248646;22;96698;-83
2024/01/13 03:18:35;;;;;;;16.60;8.87;;;;;;;2.47;68.54;100601.19;6194301;22;99545;-82
2024/01/13 03:21:02;;;;;;;13.77;7.93;;;;;;;2.53;68.02;100589.09;6194603;22;100490;-82
2024/01/13 03:23:29;;;;;;;14.87;7.97;;;;;;;2.44;68.14;100566.63;6196237;22;96482;-82
2024/01/13 03:25:55;;;;;;;13.13;7.70;;;;;;;2.69;68.14;100583.09;6196461;22;96769;-83
2024/01/13 03:28:21;;;;;;;15.23;8.33;;;;;;;2.66;67.92;100563.22;6170710;22;101340;-82
2024/01/13 03:30:47;;;;;;;14.30;7.90;;;;;;;2.69;67.69;100567.56;6170952;22;100784;-82
2024/01/13 03:33:12;;;;;;;15.97;8.50;;;;;;;2.82;67.67;100582.28;6196309;22;96475;-82
2024/01/13 03:35:38;;;;;;;15.60;7.87;;;;;;;2.95;66.91;100578.81;6222201;22;96474;-83
2024/01/13 03:38:04;;;;;;;17.27;8.10;;;;;;;2.78;67.37;100580.53;6196045;22;101204;-83
2024/01/13 03:40:29;;;;;;;13.67;8.47;;;;;;;2.41;67.58;100520.81;6196100;22;97455;-83
2024/01/13 03:42:55;;;;;;;13.00;8.20;;;;;;;2.82;67.35;100552.88;6222181;22;96456;-82
2024/01/13 03:45:20;;;;;;;12.53;8.10;;;;;;;2.69;67.20;100524.34;6222281;22;96627;-85
2024/01/13 03:47:46;;;;;;;13.73;7.70;;;;;;;2.84;66.95;100549.41;6195819;22;96878;-83
2024/01/13 03:50:11;;;;;;;10.10;7.43;;;;;;;2.69;67.09;100526.06;6195952;22;97845;-82
2024/01/13 03:52:37;;;;;;;15.53;8.77;;;;;;;2.81;67.04;100552.00;6195961;22;96680;-82
2024/01/13 03:55:03;;;;;;;16.00;8.20;;;;;;;3.03;67.33;100565.03;6196496;22;96883;-84
2024/01/13 03:57:28;;;;;;;16.80;8.37;;;;;;;2.77;67.44;100550.28;6195577;22;99841;-83
2024/01/13 03:59:53;;;;;;;14.73;7.50;;;;;;;2.80;67.69;100565.84;6195904;22;98448;-83
2024/01/13 04:02:19;;;;;;;12.87;7.40;;;;;;;2.69;67.76;100555.44;6222047;22;96504;-82
2024/01/13 04:04:45;;;;;;;14.37;8.00;;;;;;;2.71;68.10;100551.16;6171254;22;96795;-82
2024/01/13 04:07:10;;;;;;;13.43;7.53;;;;;;;2.67;67.73;100533.84;6196077;22;98461;-82
2024/01/13 04:09:38;;;;;;;13.17;7.43;;;;;;;2.60;67.75;100531.25;6195576;22;101303;-81
2024/01/13 04:12:03;;;;;;;16.33;7.53;;;;;;;2.85;67.64;100543.38;6171072;22;96567;-82
2024/01/13 04:14:29;;;;;;;14.50;7.90;;;;;;;2.82;67.51;100538.22;6249393;22;96650;-82
2024/01/13 04:16:54;;;;;;;13.10;7.13;;;;;;;2.64;67.40;100509.66;6170354;22;100915;-82
2024/01/13 04:19:20;;;;;;;15.43;9.30;;;;;;;2.75;67.28;100528.66;6170400;22;101701;-83
2024/01/13 04:21:45;;;;;;;11.20;7.53;;;;;;;2.82;68.02;100543.38;6221890;22;96465;-82
2024/01/13 04:24:11;;;;;;;11.13;7.23;;;;;;;2.74;68.26;100520.91;6196604;22;96697;-82
2024/01/13 04:26:36;;;;;;;10.23;6.70;;;;;;;2.69;68.33;100513.13;6195941;22;97919;-84
2024/01/13 04:29:02;;;;;;;15.30;8.73;;;;;;;2.64;68.12;100510.50;6196119;22;97045;-82
2024/01/13 04:31:28;;;;;;;14.67;7.67;;;;;;;2.91;68.16;100542.53;6222062;22;96589;-85
2024/01/13 04:33:53;;;;;;;14.60;8.63;;;;;;;2.88;67.99;100535.63;6170894;22;96757;-83
2024/01/13 04:36:19;;;;;;;16.43;8.13;;;;;;;2.64;68.15;100504.47;6170044;22;101298;-83
2024/01/13 04:38:45;;;;;;;11.43;7.37;;;;;;;2.70;68.33;100526.06;6221196;22;101764;-82
2024/01/13 04:41:11;;;;;;;11.97;7.53;;;;;;;2.78;68.21;100526.09;6170746;22;96521;-82
2024/01/13 04:43:39;;;;;;;15.20;7.70;;;;;;;2.88;67.97;100522.66;6170914;22;96855;-83
2024/01/13 04:46:06;;;;;;;14.30;8.63;;;;;;;3.02;67.86;100553.75;6221118;22;97542;-83
2024/01/13 04:48:31;;;;;;;16.00;8.37;;;;;;;2.83;67.51;100524.38;6170248;22;101531;-82
2024/01/13 04:50:57;;;;;;;16.13;9.23;;;;;;;2.79;67.65;100509.66;6195876;22;96525;-83
2024/01/13 04:53:22;;;;;;;13.17;7.97;;;;;;;2.83;67.62;100539.06;6196463;22;96822;-84
2024/01/13 04:55:48;;;;;;;15.40;9.07;;;;;;;2.90;67.91;100540.78;6170300;22;101051;-86
2024/01/13 04:58:13;;;;;;;14.40;8.40;;;;;;;2.85;67.28;100516.56;6195630;22;101565;-83
2024/01/13 05:00:39;;;;;;;13.27;9.27;;;;;;;2.77;67.32;100505.34;6221363;22;96512;-83
2024/01/13 05:03:04;;;;;;;15.87;7.90;;;;;;;2.78;67.03;100499.28;6170552;22;96901;-83
2024/01/13 05:05:30;;;;;;;12.83;7.90;;;;;;;3.05;66.75;100530.41;6170344;22;101186;-82
2024/01/13 05:07:56;;;;;;;11.97;7.63;;;;;;;3.10;66.66;100531.28;6195464;22;101318;-83
2024/01/13 05:10:22;;;;;;;12.87;7.80;;;;;;;2.98;66.50;100507.94;6196077;22;96472;-82
2024/01/13 05:12:48;;;;;;;13.03;7.37;;;;;;;3.04;66.49;100515.72;6196109;22;96819;-86
2024/01/13 05:15:13;;;;;;;12.47;7.60;;;;;;;2.95;66.65;100513.13;6221216;22;97440;-83
2024/01/13 05:17:39;;;;;;;15.10;8.50;;;;;;;2.68;66.85;100485.47;6195826;22;101345;-84
2024/01/13 05:20:05;;;;;;;11.60;7.17;;;;;;;2.94;67.20;100521.78;6221919;22;96418;-82
2024/01/13 05:22:31;;;;;;;11.53;7.10;;;;;;;2.97;66.93;100524.38;6196273;22;96510;-82
2024/01/13 05:24:56;;;;;;;9.70;6.83;;;;;;;2.79;66.98;100491.50;6170001;22;101875;-82
2024/01/13 05:27:22;;;;;;;11.60;6.70;;;;;;;2.97;67.13;100518.31;6195290;22;101714;-82
2024/01/13 05:29:47;;;;;;;11.27;6.77;;;;;;;2.94;67.10;100508.81;6196210;22;96569;-82
2024/01/13 05:32:13;;;;;;;11.27;6.97;;;;;;;2.89;67.37;100518.31;6196213;22;96779;-83
2024/01/13 05:34:39;;;;;;;11.17;7.00;;;;;;;2.88;67.22;100491.53;6195179;22;99770;-84
2024/01/13 05:37:05;;;;;;;11.90;7.00;;;;;;;2.83;68.12;100502.75;6195372;22;101209;-83
2024/01/13 05:39:31;;;;;;;10.93;7.00;;;;;;;2.63;67.79;100467.31;6196031;22;96449;-83
2024/01/13 05:41:58;;;;;;;10.27;6.63;;;;;;;2.68;67.64;100478.56;6196032;22;96827;-82
2024/01/13 05:44:24;;;;;;;9.57;6.00;;;;;;;2.59;67.67;100473.38;6194867;22;101156;-86
2024/01/13 05:46:49;;;;;;;12.80;7.43;;;;;;;2.71;67.64;100475.09;6195681;22;97588;-82
2024/01/13 05:49:15;;;;;;;12.63;8.07;;;;;;;2.78;67.52;100468.19;6195609;22;96504;-83
2024/01/13 05:51:40;;;;;;;10.07;6.40;;;;;;;2.81;67.37;100489.78;6195591;22;98724;-83
2024/01/13 05:54:06;;;;;;;14.23;7.07;;;;;;;2.81;67.69;100494.97;6221050;22;97812;-82
2024/01/13 05:56:31;;;;;;;9.67;6.77;;;;;;;2.88;67.43;100512.28;6169833;22;101614;-83
2024/01/13 05:58:57;;;;;;;11.20;6.77;;;;;;;3.00;67.14;100502.78;6221665;22;96426;-83
2024/01/13 06:01:25;;;;;;;10.57;7.07;;;;;;;3.02;66.66;100495.84;6170816;22;96825;-83
2024/01/13 06:03:51;;;;;;;9.03;6.10;;;;;;;2.91;67.10;100475.97;6195980;22;98446;-82
2024/01/13 06:06:17;;;;;;;13.33;7.93;;;;;;;2.92;66.80;100482.88;6195580;22;98364;-83
2024/01/13 06:08:43;;;;;;;10.20;6.17;;;;;;;3.11;66.75;100483.75;6195750;22;96501;-82
2024/01/13 06:11:09;;;;;;;9.37;6.40;;;;;;;2.89;66.81;100466.47;6221546;22;96755;-83
2024/01/13 06:13:34;;;;;;;7.70;5.67;;;;;;;3.02;66.82;100493.25;6195096;22;98667;-82
2024/01/13 06:16:00;;;;;;;8.37;6.07;;;;;;;2.93;66.46;100462.97;6194855;22;101304;-84
2024/01/13 06:18:26;;;;;;;9.47;6.00;;;;;;;2.89;66.93;100469.91;6195885;22;96522;-85
2024/01/13 06:20:51;;;;;;;9.73;6.10;;;;;;;2.92;66.42;100454.34;6221557;22;96543;-83
2024/01/13 06:23:17;;;;;;;10.27;5.83;;;;;;;3.08;66.56;100480.25;6220818;22;97914;-83
2024/01/13 06:25:42;;;;;;;8.60;5.60;;;;;;;2.93;66.45;100460.41;6220814;22;98515;-82
2024/01/13 06:28:08;;;;;;;7.67;5.70;;;;;;;2.92;66.58;100461.28;6221450;22;96442;-82
2024/01/13 06:30:33;;;;;;;10.23;6.23;;;;;;;2.95;66.37;100463.84;6195999;22;96864;-83
2024/01/13 06:32:59;;;;;;;10.90;6.60;;;;;;;3.02;66.01;100462.13;6220954;22;97509;-86
2024/01/13 06:35:24;;;;;;;9.17;5.77;;;;;;;2.98;66.47;100481.16;6220819;22;97526;-84
2024/01/13 06:37:50;;;;;;;9.80;6.10;;;;;;;2.95;66.62;100469.03;6195698;22;96572;-84
2024/01/13 06:40:16;;;;;;;8.23;5.83;;;;;;;2.96;66.37;100468.16;6170156;22;96890;-83
2024/01/13 06:42:41;;;;;;;7.83;5.70;;;;;;;2.97;66.34;100467.31;6220897;22;97989;-83
2024/01/13 06:45:07;;;;;;;9.70;5.93;;;;;;;2.98;66.59;100457.81;6169674;22;101293;-83
2024/01/13 06:47:33;;;;;;;11.63;5.87;;;;;;;3.03;66.54;100479.44;6220871;22;96464;-83
2024/01/13 06:49:58;;;;;;;7.23;5.70;;;;;;;2.81;66.70;100461.25;6195989;22;96904;-83
2024/01/13 06:52:24;;;;;;;9.90;6.07;;;;;;;3.00;66.86;100490.66;6169378;22;101489;-84
2024/01/13 06:54:50;;;;;;;9.37;5.80;;;;;;;3.00;66.72;100487.22;6220764;22;97232;-83
2024/01/13 06:57:16;;;;;;;8.13;5.30;;;;;;;2.96;66.81;100486.31;6196486;22;96550;-83
2024/01/13 06:59:43;;;;;;;7.83;5.47;;;;;;;2.89;66.81;100476.84;6197067;22;96771;-83
2024/01/13 07:02:09;;;;;;;8.50;5.80;;;;;;;2.91;66.83;100491.53;6221674;22;97708;-82
2024/01/13 07:04:38;;;;;;;8.43;5.70;;;;;;;2.80;67.62;100487.22;6170710;22;101682;-83
2024/01/13 07:07:05;;;;;;;8.43;5.27;;;;;;;2.91;67.22;100496.72;6171301;22;96506;-84
2024/01/13 07:09:31;;;;;;;11.40;6.00;;;;;;;2.64;67.83;100468.16;6197047;22;96789;-83
2024/01/13 07:11:56;;;;;;;8.47;5.63;;;;;;;2.82;67.42;100496.72;6195966;22;100966;-84
2024/01/13 07:14:22;;;;;;;10.30;6.00;;;;;;;2.95;67.71;100503.63;6196021;22;100075;-83
2024/01/13 07:16:48;;;;;;;8.17;5.40;;;;;;;2.92;67.42;100484.59;6196555;22;96490;-83
2024/01/13 07:19:15;;;;;;;7.60;4.80;;;;;;;2.70;67.26;100455.22;6196969;22;96935;-82
2024/01/13 07:21:40;;;;;;;11.07;5.37;;;;;;;2.83;67.17;100466.47;6221952;22;97716;-83
2024/01/13 07:24:08;;;;;;;8.03;5.20;;;;;;;2.80;67.09;100462.13;6196005;22;97467;-83
2024/01/13 07:26:41;;;;;;;6.77;4.57;;;;;;;2.82;66.96;100477.69;6196095;22;96587;-83
2024/01/13 07:29:07;;;;;;;7.90;4.97;;;;;;;2.84;67.39;100468.19;6222465;22;96514;-83
2024/01/13 07:31:32;;;;;;;7.10;5.13;;;;;;;2.91;67.19;100463.00;6170728;22;101245;-83
2024/01/13 07:33:58;;;;;;;8.67;4.80;;;;;;;2.69;67.46;100440.53;6221528;22;98199;-82
2024/01/13 07:36:23;;;;;;;8.67;5.43;;;;;;;2.89;67.04;100450.91;6196816;22;96522;-82
2024/01/13 07:38:49;;;;;;;11.87;6.37;;;;;;;3.08;66.92;100467.28;6196888;22;97101;-87
2024/01/13 07:41:14;;;;;;;9.63;5.93;;;;;;;3.07;66.79;100457.78;6195827;22;97820;-83
2024/01/13 07:43:40;;;;;;;9.20;6.03;;;;;;;3.11;66.70;100473.38;6196308;22;97783;-82
2024/01/13 07:46:05;;;;;;;9.27;5.33;;;;;;;2.98;66.55;100432.72;6196682;22;96454;-82
2024/01/13 07:48:31;;;;;;;9.37;4.73;;;;;;;3.07;66.84;100458.66;6196537;22;96816;-82
2024/01/13 07:50:56;;;;;;;7.07;5.00;;;;;;;3.04;67.03;100453.47;6220985;22;97886;-83
2024/01/13 07:53:22;;;;;;;6.97;5.23;;;;;;;2.91;67.46;100447.44;6221374;22;97465;-84
2024/01/13 07:55:47;;;;;;;7.50;4.83;;;;;;;3.01;67.02;100440.50;6196637;22;96463;-83
2024/01/13 07:58:13;;;;;;;8.47;4.83;;;;;;;2.97;66.59;100414.56;6171474;22;96783;-83
2024/01/13 08:00:39;;;;;;;8.07;4.80;;;;;;;2.93;67.12;100424.09;6195810;22;97548;-85
2024/01/13 08:03:04;;;;;;;6.63;4.63;;;;;;;2.97;66.86;100432.72;6195830;22;100896;-83
2024/01/13 08:05:31;;;;;;;7.33;4.40;;;;;;;2.99;66.78;100434.44;6221929;22;96538;-83
2024/01/13 08:07:57;;;;;;;7.73;4.67;;;;;;;3.00;67.01;100437.94;6222109;22;96775;-83
2024/01/13 08:10:23;;;;;;;8.33;5.33;;;;;;;3.12;66.92;100438.78;6195575;22;101087;-83
2024/01/13 08:12:48;;;;;;;9.63;5.20;;;;;;;3.09;66.82;100432.72;6170528;22;100015;-82
2024/01/13 08:15:14;;;;;;;7.13;5.00;;;;;;;3.16;66.42;100426.66;6196147;22;96887;-83
2024/01/13 08:17:40;;;;;;;9.10;4.87;;;;;;;3.07;66.03;100411.97;6196373;22;96793;-84
2024/01/13 08:20:06;;;;;;;7.70;4.60;;;;;;;2.98;66.32;100414.56;6221427;22;97964;-82
2024/01/13 08:22:32;;;;;;;9.17;4.87;;;;;;;3.12;66.40;100424.94;6195795;22;97613;-83
2024/01/13 08:24:57;;;;;;;6.80;4.57;;;;;;;3.17;66.58;100433.56;6196533;22;96511;-82
2024/01/13 08:27:23;;;;;;;6.53;4.30;;;;;;;3.07;66.80;100411.09;6170975;22;96914;-82
2024/01/13 08:29:49;;;;;;;6.33;4.80;;;;;;;3.25;66.35;100424.03;6195751;22;98464;-82
2024/01/13 08:32:14;;;;;;;6.17;4.63;;;;;;;3.09;66.31;100393.81;6195811;22;101437;-84
2024/01/13 08:34:40;;;;;;;9.73;5.13;;;;;;;3.22;66.41;100428.38;6221896;22;96526;-83
2024/01/13 08:37:05;;;;;;;7.27;4.60;;;;;;;3.18;65.95;100389.47;6170832;22;96883;-85
2024/01/13 08:39:32;;;;;;;8.07;4.77;;;;;;;3.39;65.61;100416.22;6221021;22;98106;-83
2024/01/13 08:41:57;;;;;;;6.47;4.60;;;;;;;3.05;65.51;100366.16;6196041;22;97737;-82
2024/01/13 08:44:23;;;;;;;7.87;5.40;;;;;;;3.27;65.31;100378.19;6221817;22;96470;-82
2024/01/13 08:46:48;;;;;;;6.50;4.67;;;;;;;3.34;65.20;100372.09;6196306;22;96790;-83
2024/01/13 08:49:14;;;;;;;7.10;4.53;;;;;;;3.55;65.07;100401.44;6169713;22;101177;-83
2024/01/13 08:51:39;;;;;;;8.17;5.40;;;;;;;3.37;65.00;100371.22;6195141;22;101721;-83
2024/01/13 08:54:06;;;;;;;7.33;4.67;;;;;;;3.58;64.99;100396.25;6221754;22;96582;-85
2024/01/13 08:56:34;;;;;;;7.67;4.73;;;;;;;3.52;64.09;100404.03;6196254;22;96858;-83
2024/01/13 08:59:00;;;;;;;7.23;4.10;;;;;;;3.31;64.54;100366.91;6196387;22;97687;-83
2024/01/13 09:01:26;;;;;;;6.47;4.57;;;;;;;3.59;64.62;100392.78;6194967;22;101121;-83
2024/01/13 09:03:51;;;;;;;6.93;4.37;;;;;;;3.52;64.59;100389.34;6170661;22;96616;-83
2024/01/13 09:06:17;;;;;;;8.00;4.87;;;;;;;3.48;64.23;100385.03;6221746;22;96785;-83
2024/01/13 09:08:42;;;;;;;7.50;4.73;;;;;;;3.51;64.47;100385.00;6169933;22;101495;-82
2024/01/13 09:11:09;;;;;;;7.47;4.07;;;;;;;3.52;63.88;100355.63;6195388;22;101335;-82
2024/01/13 09:13:34;;;;;;;7.13;4.70;;;;;;;3.48;63.71;100368.59;6195875;22;96641;-83
2024/01/13 09:16:00;;;;;;;6.67;4.40;;;;;;;3.28;64.53;100361.75;6196116;22;96799;-82
2024/01/13 09:18:25;;;;;;;6.87;4.43;;;;;;;3.28;64.49;100379.06;6170159;22;101357;-83
2024/01/13 09:20:51;;;;;;;4.80;3.87;;;;;;;3.27;64.36;100362.63;6169434;22;101532;-83
2024/01/13 09:23:17;;;;;;;6.27;4.13;;;;;;;3.49;63.90;100379.00;6170554;22;96513;-82
2024/01/13 09:25:42;;;;;;;5.43;3.93;;;;;;;3.47;63.84;100380.72;6170753;22;96934;-83
2024/01/13 09:28:09;;;;;;;6.07;3.90;;;;;;;3.31;63.42;100366.06;6195148;22;97783;-82
2024/01/13 09:30:35;;;;;;;7.43;4.33;;;;;;;3.40;63.60;100379.88;6195872;22;97567;-84
2024/01/13 09:33:01;;;;;;;5.30;3.73;;;;;;;3.25;63.77;100350.53;6195967;22;96589;-83
2024/01/13 09:35:30;;;;;;;5.20;3.83;;;;;;;3.35;63.74;100381.63;6196141;22;96830;-82
2024/01/13 09:37:59;;;;;;;6.70;3.70;;;;;;;3.30;63.34;100348.78;6196411;22;98015;-82
2024/01/13 09:40:28;;;;;;;6.13;4.20;;;;;;;3.55;63.24;100367.69;6220960;22;97968;-84
2024/01/13 09:42:57;;;;;;;7.57;4.43;;;;;;;3.63;62.88;100363.31;6195384;22;96496;-82
2024/01/13 09:45:22;;;;;;;6.40;4.37;;;;;;;3.68;62.78;100361.56;6249348;22;96727;-82
2024/01/13 09:47:48;;;;;;;7.90;5.30;;;;;;;3.53;63.03;100353.88;6221072;22;97980;-82
2024/01/13 09:50:14;;;;;;;9.20;4.47;;;;;;;3.32;63.26;100329.75;6195587;22;97911;-81
2024/01/13 09:52:40;;;;;;;5.60;3.70;;;;;;;3.45;63.44;100347.84;6194994;22;96777;-82
2024/01/13 09:55:08;;;;;;;5.23;3.77;;;;;;;3.46;63.32;100347.88;6221739;22;96719;-83
2024/01/13 09:57:34;;;;;;;7.67;4.23;;;;;;;3.47;62.98;100343.53;6195138;22;101261;-82
2024/01/13 10:00:02;;;;;;;6.63;3.73;;;;;;;3.52;63.18;100336.56;6195171;22;101359;-82
2024/01/13 10:02:30;;;;;;;5.30;4.10;;;;;;;3.38;63.09;100323.66;6197046;22;96553;-84
2024/01/13 10:04:55;;;;;;;4.90;3.33;;;;;;;3.46;62.70;100331.41;6248886;22;96786;-84
2024/01/13 10:07:21;;;;;;;5.47;3.00;;;;;;;3.49;63.06;100315.81;6195196;22;101196;-82
2024/01/13 10:09:46;;;;;;;4.90;3.20;;;;;;;3.50;62.88;100310.63;6195541;22;97961;-81
2024/01/13 10:12:12;;;;;;;6.93;4.03;;;;;;;3.56;62.79;100317.53;6221438;22;96489;-81
2024/01/13 10:14:39;;;;;;;5.00;3.30;;;;;;;3.48;62.72;100301.13;6195920;22;96826;-82
2024/01/13 10:17:05;;;;;;;5.70;3.60;;;;;;;3.50;62.93;100292.47;6220523;22;97863;-82
2024/01/13 10:19:36;;;;;;;4.07;3.20;;;;;;;3.34;62.70;100257.06;6169932;22;101443;-84
2024/01/13 10:22:02;;;;;;;6.35;3.60;;;;;;;3.47;62.59;100265.66;6170367;22;96485;-82
2024/01/13 10:24:29;;;;;;;5.20;3.23;;;;;;;3.42;62.76;100268.28;6248809;22;96765;-83
2024/01/13 10:26:55;;;;;;;7.17;3.27;;;;;;;3.61;62.61;100292.41;6195279;22;97903;-82
2024/01/13 10:29:20;;;;;;;6.70;3.93;;;;;;;3.45;62.58;100289.00;6169633;22;101597;-83
2024/01/13 10:31:50;;;;;;;5.00;3.43;;;;;;;3.48;63.01;100285.53;6169900;22;96548;-83
2024/01/13 10:34:19;;;;;;;5.77;3.50;;;;;;;3.31;62.40;100251.91;6196510;22;96506;-82
2024/01/13 10:36:45;;;;;;;4.93;3.10;;;;;;;3.36;62.91;100242.38;6220594;22;98218;-81
2024/01/13 10:39:11;;;;;;;3.77;2.93;;;;;;;3.55;62.34;100246.56;6220718;22;97471;-83
2024/01/13 10:41:39;;;;;;;5.53;3.17;;;;;;;3.63;62.48;100256.88;6169888;22;96607;-82
2024/01/13 10:44:08;;;;;;;5.53;3.20;;;;;;;3.56;62.80;100244.84;6195685;22;96801;-82
2024/01/13 10:46:37;;;;;;;4.53;3.27;;;;;;;3.80;61.97;100238.59;6194493;22;100681;-84
2024/01/13 10:49:04;;;;;;;5.30;3.57;;;;;;;3.79;61.78;100226.50;6168962;22;101586;-82
2024/01/13 10:51:46;;;;;;;4.43;2.87;;;;;;;3.85;61.80;100244.63;6194660;22;96719;-82
2024/01/13 10:54:14;;;;;;;4.47;2.73;;;;;;;3.85;61.41;100249.81;6195669;22;96801;-82
2024/01/13 10:56:40;;;;;;;3.83;2.43;;;;;;;3.62;61.58;100216.25;6194747;22;100319;-82
2024/01/13 10:59:06;;;;;;;5.47;3.30;;;;;;;3.67;61.71;100240.44;6195008;22;101136;-84
2024/01/13 11:01:32;;;;;;;5.77;3.40;;;;;;;3.71;61.98;100231.75;6221101;22;96519;-81
2024/01/13 11:03:58;;;;;;;5.77;3.80;;;;;;;3.67;61.98;100232.66;6195573;22;96730;-82
2024/01/13 11:06:24;;;;;;;6.47;3.30;;;;;;;3.65;61.76;100217.94;6169046;22;101467;-81
2024/01/13 11:08:50;;;;;;;7.43;3.87;;;;;;;3.65;62.26;100225.75;6194685;22;97519;-82
2024/01/13 11:11:38;;;;;;;6.23;4.63;;;;;;;3.76;61.90;100227.38;6195252;22;96487;-83
2024/01/13 11:14:13;;;;;;;7.03;3.90;;;;;;;3.64;62.20;100201.53;6194916;22;96829;-82
2024/01/13 11:16:40;;;;;;;5.50;3.33;;;;;;;3.64;62.34;100209.31;6220501;22;97962;-82
2024/01/13 11:19:06;;;;;;;5.27;3.20;;;;;;;3.52;62.21;100192.09;6194755;22;97886;-83
2024/01/13 11:21:32;;;;;;;5.07;3.60;;;;;;;3.59;62.27;100218.84;6194853;22;96551;-81